Time;durP1;ratioP1;P1;durP2;ratioP2;P2;SDS_P1;SDS_P2;PMS_P1;PMS_P2;Temp;Humidity;BMP_temperature;BMP_pressure;BME280_temperature;BME280_humidity;BME280_pressure;Samples;Min_cycle;Max_cycle;Signal;HPM_P1;HPM_P2
2022/02/04 00:05:06;;;;;;;35.53;19.90;;;8.30;74.70;;;;;;5033305;28;20430;-78
2022/02/04 00:07:43;;;;;;;30.45;19.80;;;8.30;73.80;;;;;;5008257;28;20482;-79
2022/02/04 00:23:45;;;;;;;30.00;18.65;;;8.30;71.00;;;;;;5038201;28;20471;-79
2022/02/04 00:26:20;;;;;;;28.00;19.03;;;8.30;72.10;;;;;;5024823;28;20415;-79
2022/02/04 00:33:52;;;;;;;30.70;19.60;;;8.30;72.20;;;;;;5021521;28;20466;-79
2022/02/04 00:36:27;;;;;;;30.10;19.08;;;8.30;71.90;;;;;;5026491;28;20390;-78
2022/02/04 00:38:55;;;;;;;28.83;18.55;;;8.30;71.30;;;;;;5027718;28;20411;-76
2022/02/04 00:41:25;;;;;;;26.90;18.60;;;8.30;72.20;;;;;;5015724;28;20409;-75
2022/02/04 00:43:53;;;;;;;32.35;20.10;;;8.30;71.90;;;;;;5039737;28;20425;-76
2022/02/04 00:48:59;;;;;;;31.83;18.52;;;8.20;74.00;;;;;;5035266;28;20403;-76
2022/02/04 00:54:15;;;;;;;29.85;19.17;;;8.50;68.80;;;;;;5022214;28;20402;-77
2022/02/04 00:57:08;;;;;;;30.53;19.10;;;8.40;69.60;;;;;;5015328;28;20390;-77
2022/02/04 01:13:37;;;;;;;33.33;20.45;;;8.40;70.00;;;;;;5012618;28;20411;-77
2022/02/04 01:27:01;;;;;;;28.23;18.60;;;8.20;72.00;;;;;;5033507;28;20853;-77
2022/02/04 01:29:31;;;;;;;26.85;18.67;;;8.30;71.90;;;;;;5034070;28;20396;-78
2022/02/04 01:31:57;;;;;;;28.88;18.67;;;8.30;73.10;;;;;;5034295;28;20411;-77
2022/02/04 01:34:23;;;;;;;27.33;17.83;;;8.30;70.60;;;;;;5035774;28;20395;-78
2022/02/04 01:36:48;;;;;;;25.85;17.23;;;8.30;70.90;;;;;;5038947;28;20383;-78
2022/02/04 01:39:14;;;;;;;27.60;17.95;;;8.40;68.80;;;;;;5037116;28;20458;-78
2022/02/04 01:41:42;;;;;;;27.75;17.25;;;8.30;69.70;;;;;;5021748;28;20888;-78
2022/02/04 01:44:21;;;;;;;27.45;17.50;;;8.30;68.50;;;;;;5029841;28;20405;-77
2022/02/04 01:46:47;;;;;;;26.10;16.45;;;8.40;68.90;;;;;;4991221;28;20417;-77
2022/02/04 01:49:12;;;;;;;27.67;17.30;;;8.40;68.30;;;;;;4995604;28;20390;-78
2022/02/04 01:51:38;;;;;;;23.37;16.27;;;8.30;69.30;;;;;;5010398;28;20446;-78
2022/02/04 01:54:04;;;;;;;25.80;16.80;;;8.40;68.20;;;;;;5019779;28;20894;-78
2022/02/04 01:56:29;;;;;;;23.47;16.10;;;8.40;68.00;;;;;;5023307;28;20392;-77
2022/02/04 01:58:55;;;;;;;27.30;16.70;;;8.40;67.30;;;;;;5018270;28;20389;-78
2022/02/04 02:01:20;;;;;;;23.90;16.33;;;8.30;68.00;;;;;;5013033;28;20857;-77
2022/02/04 02:03:46;;;;;;;23.97;15.80;;;8.20;68.90;;;;;;5031674;28;20423;-78
2022/02/04 02:06:12;;;;;;;23.43;16.00;;;8.20;68.80;;;;;;5032895;28;20492;-77
2022/02/04 02:08:40;;;;;;;23.83;15.57;;;8.30;68.50;;;;;;5034155;28;20373;-77
2022/02/04 02:11:09;;;;;;;22.00;14.70;;;8.30;67.50;;;;;;5031275;28;20396;-78
2022/02/04 02:13:48;;;;;;;21.45;15.63;;;8.30;66.80;;;;;;5020956;28;20403;-78
2022/02/04 02:46:18;;;;;;;16.37;11.70;;;8.30;64.70;;;;;;5042816;28;20458;-77
2022/02/04 02:54:10;;;;;;;15.65;11.10;;;8.40;62.80;;;;;;5034806;28;20435;-77
2022/02/04 03:02:11;;;;;;;17.73;10.30;;;8.40;61.30;;;;;;5029465;28;20477;-78
2022/02/04 03:04:37;;;;;;;16.90;10.93;;;8.40;61.80;;;;;;5031992;28;20420;-78
2022/02/04 03:07:03;;;;;;;14.90;10.47;;;8.40;60.50;;;;;;5032957;28;20421;-78
2022/02/04 03:09:28;;;;;;;16.48;10.93;;;8.50;60.60;;;;;;5034697;28;20369;-77
2022/02/04 03:11:54;;;;;;;17.63;10.50;;;8.50;60.20;;;;;;5035103;28;20401;-77
2022/02/04 03:14:19;;;;;;;14.30;10.10;;;8.50;59.80;;;;;;5011179;28;20819;-78
2022/02/04 03:16:45;;;;;;;14.30;10.20;;;8.50;59.40;;;;;;5021100;28;20408;-78
2022/02/04 03:19:11;;;;;;;15.60;10.80;;;8.50;60.40;;;;;;5036559;28;20395;-77
2022/02/04 03:21:43;;;;;;;16.50;10.70;;;8.50;60.00;;;;;;5045100;28;20443;-80
2022/02/04 03:24:16;;;;;;;16.70;10.85;;;8.50;59.60;;;;;;5028315;28;20424;-79
2022/02/04 03:26:48;;;;;;;14.00;10.15;;;8.50;59.00;;;;;;5054140;28;20410;-78
2022/02/04 03:29:23;;;;;;;14.03;10.10;;;8.60;58.40;;;;;;5054543;28;20437;-78
2022/02/04 03:31:53;;;;;;;17.73;10.23;;;8.60;58.10;;;;;;5027066;28;20392;-77
2022/02/04 03:34:19;;;;;;;16.35;11.00;;;8.60;58.10;;;;;;5036037;28;20381;-79
2022/02/04 03:36:45;;;;;;;14.63;10.90;;;8.50;59.50;;;;;;5034160;28;20403;-79
2022/02/04 03:39:10;;;;;;;12.88;10.07;;;8.50;58.40;;;;;;5033700;28;20385;-79
2022/02/04 03:41:36;;;;;;;15.85;10.10;;;8.50;58.40;;;;;;5036550;28;20418;-78
2022/02/04 03:44:02;;;;;;;14.45;9.93;;;8.60;57.30;;;;;;5036996;28;20405;-78
2022/02/04 03:46:27;;;;;;;18.23;10.20;;;8.60;57.00;;;;;;5038804;28;20441;-77
2022/02/04 03:48:55;;;;;;;17.10;10.33;;;8.60;57.40;;;;;;5041130;28;20405;-80
2022/02/04 03:51:21;;;;;;;14.27;10.50;;;8.60;56.90;;;;;;5034499;28;20399;-78
2022/02/04 03:53:46;;;;;;;15.93;10.60;;;8.60;57.20;;;;;;5033760;28;20401;-79
2022/02/04 03:56:12;;;;;;;16.50;10.47;;;8.50;58.00;;;;;;5000780;28;20494;-77
2022/02/04 03:58:37;;;;;;;14.23;10.17;;;8.50;57.70;;;;;;5017491;28;20431;-79
2022/02/04 04:01:06;;;;;;;13.82;9.65;;;8.50;57.40;;;;;;5018148;28;20404;-78
2022/02/04 04:03:32;;;;;;;13.50;9.43;;;8.60;55.80;;;;;;5018612;28;20397;-79
2022/02/04 04:05:58;;;;;;;13.40;8.70;;;8.60;55.90;;;;;;5000419;28;20778;-79
2022/02/04 04:08:23;;;;;;;12.23;8.70;;;8.60;55.60;;;;;;5018225;28;20389;-80
2022/02/04 04:10:51;;;;;;;16.20;9.77;;;8.50;56.60;;;;;;5017409;28;20393;-79
2022/02/04 04:13:17;;;;;;;12.23;9.18;;;8.60;55.60;;;;;;5019081;28;20468;-79
2022/02/04 04:15:43;;;;;;;12.60;8.90;;;8.60;55.70;;;;;;5017734;28;20905;-77
2022/02/04 04:18:12;;;;;;;13.05;9.60;;;8.70;53.90;;;;;;5034695;28;20402;-77
2022/02/04 04:20:39;;;;;;;15.13;10.00;;;8.70;54.00;;;;;;5029967;28;20395;-77
2022/02/04 04:23:04;;;;;;;14.13;8.75;;;8.70;54.50;;;;;;5025056;28;20408;-77
2022/02/04 04:25:30;;;;;;;15.27;9.30;;;8.60;54.80;;;;;;5019098;28;20404;-77
2022/02/04 04:27:55;;;;;;;16.30;9.32;;;8.60;54.90;;;;;;4998409;28;20439;-78
2022/02/04 04:30:23;;;;;;;14.93;8.82;;;8.60;55.30;;;;;;5015610;28;20381;-77
2022/02/04 04:32:50;;;;;;;10.70;7.90;;;8.60;54.60;;;;;;4997678;28;20763;-76
2022/02/04 04:35:19;;;;;;;12.15;8.68;;;8.70;54.50;;;;;;5016132;28;20465;-79
2022/02/04 04:43:13;;;;;;;13.55;8.15;;;8.70;54.20;;;;;;5013400;28;20804;-76
2022/02/04 05:29:16;;;;;;;13.10;7.20;;;8.70;52.90;;;;;;5021253;28;20395;-79
2022/02/04 05:31:42;;;;;;;8.80;6.32;;;8.70;52.30;;;;;;5018482;28;20408;-79
2022/02/04 05:34:09;;;;;;;8.93;6.20;;;8.70;51.70;;;;;;5018953;28;20407;-79
2022/02/04 05:36:40;;;;;;;8.45;6.40;;;8.80;51.30;;;;;;5019146;28;20388;-78
2022/02/04 05:39:06;;;;;;;8.40;6.00;;;8.70;52.20;;;;;;5025577;28;20392;-78
2022/02/04 05:41:35;;;;;;;8.65;6.57;;;8.70;52.00;;;;;;5011149;28;20435;-79
2022/02/04 05:44:06;;;;;;;8.35;5.90;;;8.70;51.40;;;;;;5020357;28;20445;-77
2022/02/04 05:46:37;;;;;;;11.82;6.47;;;8.80;50.90;;;;;;5018937;28;20964;-78
2022/02/04 05:49:04;;;;;;;11.00;6.50;;;8.80;50.50;;;;;;5019935;28;20509;-78
2022/02/04 05:51:44;;;;;;;9.80;5.97;;;8.90;50.50;;;;;;5002867;28;20392;-81
2022/02/04 05:54:21;;;;;;;10.53;6.20;;;8.80;50.40;;;;;;5019080;28;20480;-78
2022/02/04 05:59:39;;;;;;;8.75;6.10;;;8.80;50.30;;;;;;5018843;28;20400;-78
2022/02/04 06:02:31;;;;;;;8.02;5.75;;;8.80;50.60;;;;;;5019245;28;20396;-79
2022/02/04 06:05:00;;;;;;;7.75;5.70;;;8.80;50.70;;;;;;5015207;28;20805;-80
2022/02/04 06:07:36;;;;;;;11.77;6.93;;;8.80;50.80;;;;;;5015664;28;20405;-78
2022/02/04 06:23:10;;;;;;;14.30;6.00;;;8.80;51.60;;;;;;5022542;28;20403;-78
2022/02/04 06:25:38;;;;;;;12.50;6.30;;;8.80;51.50;;;;;;5015895;28;20389;-77
2022/02/04 06:28:04;;;;;;;11.25;6.32;;;8.80;51.60;;;;;;5015280;28;20392;-76
2022/02/04 06:30:30;;;;;;;11.30;5.70;;;8.80;50.80;;;;;;4999085;28;20503;-79
2022/02/04 06:32:55;;;;;;;9.70;5.83;;;8.80;50.20;;;;;;5019845;28;20400;-80
2022/02/04 06:35:21;;;;;;;10.55;5.70;;;8.90;50.20;;;;;;5016629;28;20827;-78
2022/02/04 06:37:46;;;;;;;8.73;5.53;;;8.90;50.00;;;;;;5023029;28;20764;-77
2022/02/04 06:40:12;;;;;;;7.28;5.00;;;8.90;50.20;;;;;;5023862;28;20744;-77
2022/02/04 06:42:38;;;;;;;11.43;5.72;;;8.90;50.00;;;;;;5041454;28;20482;-77
2022/02/04 06:45:05;;;;;;;10.18;5.20;;;8.80;50.40;;;;;;5046453;28;20399;-78
2022/02/04 06:47:31;;;;;;;7.83;4.80;;;8.90;50.30;;;;;;5035569;28;20415;-78
2022/02/04 06:49:57;;;;;;;9.75;5.10;;;8.90;50.10;;;;;;5024141;28;20393;-79
2022/02/04 06:52:22;;;;;;;8.15;5.20;;;8.90;50.30;;;;;;5024770;28;20392;-77
2022/02/04 06:54:48;;;;;;;5.10;4.60;;;8.80;51.10;;;;;;5011575;28;20437;-78
2022/02/04 06:57:14;;;;;;;5.70;4.90;;;8.90;50.70;;;;;;5020351;28;20392;-78
2022/02/04 06:59:42;;;;;;;7.20;4.30;;;8.90;50.90;;;;;;4995752;28;20823;-77
2022/02/04 07:02:08;;;;;;;6.63;4.25;;;8.90;50.80;;;;;;5013798;28;20403;-77
2022/02/04 07:04:35;;;;;;;7.22;4.70;;;8.80;51.60;;;;;;5015377;28;20396;-77
2022/02/04 07:07:02;;;;;;;7.93;4.55;;;8.90;51.50;;;;;;5021405;28;20413;-77
2022/02/04 07:17:22;;;;;;;6.50;5.07;;;8.90;53.20;;;;;;5016010;28;20402;-77
2022/02/04 07:19:48;;;;;;;9.57;4.90;;;8.80;54.20;;;;;;5005481;28;20468;-77
2022/02/04 07:22:31;;;;;;;7.55;4.80;;;8.90;54.30;;;;;;5021914;28;20430;-76
2022/02/04 07:24:59;;;;;;;7.27;4.87;;;8.90;55.30;;;;;;5020729;28;20428;-79
2022/02/04 07:27:26;;;;;;;7.47;4.78;;;8.90;56.00;;;;;;5008004;28;20408;-79
2022/02/04 07:29:54;;;;;;;9.18;5.10;;;8.90;56.30;;;;;;5026567;28;20397;-78
2022/02/04 07:42:58;;;;;;;9.60;6.90;;;8.90;59.30;;;;;;5013292;28;20491;-77
2022/02/04 07:45:24;;;;;;;10.90;6.83;;;8.90;60.00;;;;;;5004704;28;20445;-79
2022/02/04 07:47:50;;;;;;;12.70;6.90;;;8.90;60.00;;;;;;5022427;28;20424;-78
2022/02/04 07:50:20;;;;;;;14.77;6.75;;;8.90;59.70;;;;;;5030154;28;20826;-78
2022/02/04 07:52:48;;;;;;;10.27;7.03;;;8.90;60.70;;;;;;5032590;28;20428;-80
2022/02/04 07:55:13;;;;;;;14.95;7.13;;;9.00;59.70;;;;;;5031781;28;20493;-79
2022/02/04 07:57:41;;;;;;;12.43;7.40;;;9.00;59.70;;;;;;5031601;28;20408;-77
2022/02/04 08:00:07;;;;;;;10.65;6.90;;;9.00;61.20;;;;;;5025974;28;20404;-80
2022/02/04 08:02:34;;;;;;;13.00;7.07;;;9.10;59.10;;;;;;5010677;28;20393;-79
2022/02/04 08:05:03;;;;;;;12.30;6.80;;;9.10;58.90;;;;;;5014119;28;20404;-80
2022/02/04 08:07:36;;;;;;;11.68;6.70;;;9.10;58.30;;;;;;5034565;28;20417;-80
2022/02/04 08:10:10;;;;;;;10.85;6.53;;;9.10;58.10;;;;;;5035240;28;20404;-81
2022/02/04 08:15:18;;;;;;;8.63;6.43;;;9.10;57.90;;;;;;5030966;28;20395;-82
2022/02/04 08:20:50;;;;;;;11.27;5.80;;;9.10;57.90;;;;;;5032568;28;20362;-80
2022/02/04 08:23:41;;;;;;;10.87;6.40;;;9.10;57.40;;;;;;5036152;28;20454;-79
2022/02/04 08:39:21;;;;;;;8.32;5.72;;;9.50;52.10;;;;;;5021126;28;20404;-79
2022/02/04 08:47:17;;;;;;;6.00;5.25;;;9.70;50.80;;;;;;5026728;28;20428;-79
2022/02/04 08:52:30;;;;;;;8.00;4.90;;;9.70;49.70;;;;;;5039268;28;20413;-78
2022/02/04 08:55:04;;;;;;;7.85;4.80;;;9.70;49.30;;;;;;5036025;28;20405;-79
2022/02/04 09:02:39;;;;;;;7.03;5.10;;;9.90;49.10;;;;;;5033199;28;20465;-78
2022/02/04 09:05:10;;;;;;;6.50;4.60;;;9.90;49.50;;;;;;5031464;28;20442;-78
2022/02/04 09:08:15;;;;;;;6.18;4.78;;;9.90;50.00;;;;;;5031416;28;20452;-79
2022/02/04 09:10:24;;;;;;;9.80;5.97;;;9.90;49.80;;;;;;4996505;28;20452;-79
2022/02/04 09:23:20;;;;;;;9.05;6.15;;;9.90;51.50;;;;;;5028913;28;20442;-78
2022/02/04 09:25:46;;;;;;;8.30;5.93;;;9.90;51.80;;;;;;5025094;28;20480;-78
2022/02/04 09:28:11;;;;;;;10.30;6.20;;;10.00;51.20;;;;;;5021162;28;20432;-78
2022/02/04 09:30:37;;;;;;;9.10;6.00;;;10.10;50.00;;;;;;5007436;28;20402;-80
2022/02/04 09:33:02;;;;;;;9.23;5.50;;;10.00;50.60;;;;;;5008031;28;20385;-78
2022/02/04 09:35:28;;;;;;;10.23;5.87;;;10.00;49.80;;;;;;5015001;28;20439;-78
2022/02/04 09:37:55;;;;;;;9.67;5.60;;;9.90;50.80;;;;;;5012800;28;20394;-79
2022/02/04 09:40:21;;;;;;;8.50;5.88;;;9.90;51.00;;;;;;5025817;28;20806;-80
2022/02/04 09:42:48;;;;;;;8.70;5.97;;;9.80;52.30;;;;;;5027809;28;20424;-80
2022/02/04 09:45:18;;;;;;;8.40;5.90;;;9.70;53.30;;;;;;5028196;28;20395;-79
2022/02/04 09:47:54;;;;;;;8.30;5.70;;;9.70;54.40;;;;;;5033662;28;20428;-80
2022/02/04 09:50:23;;;;;;;8.73;6.10;;;9.70;54.60;;;;;;5032029;28;20401;-80
2022/02/04 10:18:32;;;;;;;6.50;4.18;;;10.50;47.10;;;;;;5018200;28;20400;-79
2022/02/04 10:21:06;;;;;;;6.32;4.40;;;10.50;46.20;;;;;;5029159;28;20392;-80
2022/02/04 10:23:58;;;;;;;6.95;4.45;;;10.50;47.00;;;;;;5028994;28;20393;-80
2022/02/04 10:26:25;;;;;;;6.60;4.30;;;10.70;46.20;;;;;;5027617;28;20503;-79
2022/02/04 10:28:52;;;;;;;5.35;3.60;;;10.60;46.20;;;;;;5025156;28;20410;-79
2022/02/04 10:31:20;;;;;;;4.70;3.42;;;10.50;45.90;;;;;;5022307;28;20420;-81
2022/02/04 10:34:07;;;;;;;4.10;3.00;;;10.40;47.30;;;;;;5028260;28;20472;-80
2022/02/04 10:36:34;;;;;;;5.20;3.05;;;10.40;47.50;;;;;;5025035;28;20413;-83
2022/02/04 10:39:19;;;;;;;4.32;3.25;;;10.30;48.40;;;;;;5048628;28;20475;-81
2022/02/04 10:42:08;;;;;;;7.80;3.00;;;10.30;49.30;;;;;;5026655;28;20406;-79
2022/02/04 10:44:48;;;;;;;4.53;3.50;;;10.40;49.30;;;;;;5012029;28;20395;-81
2022/02/04 10:48:32;;;;;;;4.00;3.20;;;10.40;48.00;;;;;;5004344;28;20473;-79
2022/02/04 10:54:08;;;;;;;6.18;3.15;;;10.60;46.70;;;;;;5035522;28;20408;-79
2022/02/04 11:03:32;;;;;;;4.75;2.65;;;10.40;46.40;;;;;;5034677;28;20889;-78
2022/02/04 11:09:11;;;;;;;5.33;3.10;;;10.60;45.50;;;;;;5030638;28;20408;-79
2022/02/04 11:11:58;;;;;;;3.80;2.83;;;10.80;43.80;;;;;;5015739;28;20398;-80
2022/02/04 11:31:22;;;;;;;5.07;2.33;;;11.30;36.60;;;;;;5020021;28;20496;-79
2022/02/04 11:54:43;;;;;;;5.70;3.47;;;10.40;37.10;;;;;;5034050;28;20744;-78
2022/02/04 11:56:55;;;;;;;5.38;2.10;;;10.30;37.60;;;;;;5010337;28;20440;-79
2022/02/04 11:59:45;;;;;;;1.92;1.70;;;10.40;37.20;;;;;;5018562;28;20873;-80
2022/02/04 12:02:26;;;;;;;3.97;1.80;;;10.30;38.00;;;;;;5018410;28;20408;-78
2022/02/04 12:05:11;;;;;;;2.23;1.93;;;10.40;36.60;;;;;;5021978;28;20385;-79
2022/02/04 12:08:09;;;;;;;3.28;2.53;;;10.50;37.90;;;;;;5029466;28;20653;-81
2022/02/04 12:10:42;;;;;;;4.13;2.30;;;10.50;36.70;;;;;;5023928;28;20474;-79
2022/02/04 12:13:09;;;;;;;3.03;2.72;;;10.70;36.10;;;;;;5010058;28;20421;-79
2022/02/04 12:15:44;;;;;;;4.47;2.53;;;10.80;35.60;;;;;;5018822;28;20748;-80
2022/02/04 12:18:18;;;;;;;5.70;2.20;;;10.70;35.40;;;;;;5017911;28;20496;-79
2022/02/04 12:20:49;;;;;;;3.30;2.60;;;10.60;36.20;;;;;;5030770;28;20581;-79
2022/02/04 12:23:36;;;;;;;5.10;2.45;;;10.50;36.30;;;;;;5028487;28;20455;-79
2022/02/04 12:26:20;;;;;;;3.70;2.20;;;10.60;36.20;;;;;;5011720;28;20397;-79
2022/02/04 12:29:01;;;;;;;4.20;2.17;;;10.60;35.60;;;;;;5026305;28;20403;-79
2022/02/04 12:31:26;;;;;;;4.93;2.50;;;10.60;35.50;;;;;;5033717;28;20403;-78
2022/02/04 12:33:56;;;;;;;7.10;2.40;;;10.50;36.20;;;;;;5022618;28;20401;-78
2022/02/04 12:36:25;;;;;;;4.05;2.50;;;10.40;36.20;;;;;;5022974;28;20490;-80
2022/02/04 12:38:57;;;;;;;2.70;2.20;;;10.40;36.80;;;;;;5040170;28;20389;-79
2022/02/04 12:41:33;;;;;;;6.20;2.38;;;10.30;36.90;;;;;;5032332;28;20758;-77
2022/02/04 12:44:03;;;;;;;3.13;2.47;;;10.30;36.90;;;;;;5032214;28;20426;-80
2022/02/04 12:46:30;;;;;;;3.60;2.60;;;10.40;36.80;;;;;;5018553;28;20444;-78
2022/02/04 12:49:00;;;;;;;5.70;2.47;;;10.40;37.00;;;;;;5027826;28;20391;-78
2022/02/04 13:03:12;;;;;;;6.35;3.00;;;10.60;36.20;;;;;;5031709;28;20402;-77
2022/02/04 13:11:10;;;;;;;6.00;2.90;;;10.40;37.20;;;;;;5022346;28;20412;-79
2022/02/04 13:13:45;;;;;;;5.47;3.60;;;10.50;36.90;;;;;;5025534;28;20452;-79
2022/02/04 13:16:15;;;;;;;3.78;3.10;;;10.60;36.90;;;;;;5016892;28;20414;-80
2022/02/04 13:18:41;;;;;;;4.32;3.53;;;10.80;35.70;;;;;;5030894;28;20925;-80
2022/02/04 13:21:07;;;;;;;4.65;4.00;;;10.80;34.90;;;;;;5008285;28;20394;-80
2022/02/04 13:23:33;;;;;;;5.80;3.50;;;10.90;34.40;;;;;;5013845;28;20399;-79
2022/02/04 13:26:05;;;;;;;3.90;3.40;;;11.00;33.90;;;;;;5012229;28;20421;-79
2022/02/04 13:28:42;;;;;;;5.25;3.70;;;10.90;34.00;;;;;;5034804;28;20896;-78
2022/02/04 13:31:13;;;;;;;5.43;3.20;;;10.90;34.10;;;;;;5035824;28;20606;-78
2022/02/04 13:33:39;;;;;;;6.30;4.25;;;11.10;33.90;;;;;;5027396;28;20403;-77
2022/02/04 13:36:31;;;;;;;4.70;3.70;;;11.30;33.10;;;;;;5016164;28;20399;-77
2022/02/04 13:39:22;;;;;;;9.10;4.00;;;11.30;32.60;;;;;;5015488;28;20393;-76
2022/02/04 13:42:05;;;;;;;6.38;3.90;;;11.40;32.10;;;;;;5016993;28;20392;-78
2022/02/04 13:44:48;;;;;;;3.95;3.25;;;11.30;31.90;;;;;;5032530;28;20628;-78
2022/02/04 13:47:33;;;;;;;10.35;4.15;;;11.20;31.90;;;;;;5019395;28;20408;-78
2022/02/04 14:03:24;;;;;;;5.17;2.83;;;11.00;34.70;;;;;;5016392;28;20751;-79
2022/02/04 14:06:06;;;;;;;4.07;2.75;;;10.90;35.10;;;;;;5027096;28;20457;-78
2022/02/04 14:08:44;;;;;;;4.30;2.80;;;10.80;35.70;;;;;;5035916;28;20449;-77
2022/02/04 14:11:11;;;;;;;9.18;3.55;;;10.80;35.90;;;;;;5024333;28;20401;-79
2022/02/04 14:13:36;;;;;;;4.60;3.05;;;10.70;36.00;;;;;;5023087;28;20400;-79
2022/02/04 14:16:06;;;;;;;10.07;3.30;;;10.80;35.00;;;;;;5021231;28;20496;-79
2022/02/04 14:18:35;;;;;;;6.97;3.03;;;10.90;35.10;;;;;;5021531;28;20523;-80
2022/02/04 14:21:01;;;;;;;6.20;2.97;;;10.90;34.60;;;;;;5024318;28;20954;-79
2022/02/04 14:23:27;;;;;;;5.23;2.93;;;10.90;35.00;;;;;;5017142;28;20449;-79
2022/02/04 14:26:04;;;;;;;3.63;2.93;;;10.90;33.90;;;;;;5005451;28;20395;-80
2022/02/04 14:50:38;;;;;;;8.93;2.83;;;10.50;34.20;;;;;;5019426;28;20478;-79
2022/02/04 14:58:40;;;;;;;6.23;2.17;;;10.40;34.60;;;;;;5022078;28;20415;-80
2022/02/04 15:03:15;;;;;;;4.72;2.40;;;10.40;33.90;;;;;;5022465;28;20435;-81
2022/02/04 15:05:47;;;;;;;4.32;2.10;;;10.40;34.10;;;;;;5019912;28;20929;-80
2022/02/04 15:08:17;;;;;;;6.13;2.67;;;10.40;33.90;;;;;;5017613;28;20428;-80
2022/02/04 15:10:45;;;;;;;4.55;1.85;;;10.40;33.70;;;;;;5016997;28;20393;-77
2022/02/04 15:13:14;;;;;;;7.90;2.40;;;10.30;33.80;;;;;;5014049;28;20393;-77
2022/02/04 15:15:41;;;;;;;5.22;2.10;;;10.30;33.80;;;;;;5014297;28;20793;-78
2022/02/04 15:18:06;;;;;;;9.85;2.80;;;10.30;34.20;;;;;;4996620;28;20393;-76
2022/02/04 15:20:32;;;;;;;7.40;2.10;;;10.30;34.80;;;;;;5014214;28;20399;-77
2022/02/04 15:22:58;;;;;;;5.43;2.50;;;10.30;34.50;;;;;;5012435;28;20917;-76
2022/02/04 15:25:24;;;;;;;3.47;2.40;;;10.20;35.90;;;;;;5015149;28;20463;-78
2022/02/04 15:28:31;;;;;;;6.70;2.10;;;10.20;36.30;;;;;;5023164;28;20502;-76
2022/02/04 15:30:48;;;;;;;5.78;2.20;;;10.20;36.90;;;;;;5015532;28;20505;-77
2022/02/04 15:33:14;;;;;;;3.95;2.25;;;10.10;38.00;;;;;;5015585;28;20402;-76
2022/02/04 15:35:40;;;;;;;3.70;2.40;;;10.00;40.40;;;;;;4993237;28;20785;-77
2022/02/04 15:38:06;;;;;;;4.80;2.53;;;9.90;43.30;;;;;;5012928;28;20831;-78
2022/02/04 15:40:32;;;;;;;5.45;2.60;;;9.70;45.70;;;;;;5020229;28;20413;-77
2022/02/04 15:43:01;;;;;;;4.18;2.20;;;9.60;47.20;;;;;;5016348;28;20481;-78
2022/02/04 15:50:35;;;;;;;10.57;2.10;;;9.40;51.80;;;;;;5014872;28;20773;-77
2022/02/04 15:53:23;;;;;;;6.10;2.28;;;9.30;51.90;;;;;;5008161;28;20482;-77
2022/02/04 16:01:22;;;;;;;5.93;2.75;;;9.10;59.30;;;;;;5016267;28;20411;-79
2022/02/04 16:06:16;;;;;;;3.50;1.88;;;9.10;60.30;;;;;;5007510;28;20449;-78
2022/02/04 16:08:42;;;;;;;4.60;2.17;;;9.10;59.10;;;;;;5025673;28;20416;-77
2022/02/04 16:11:17;;;;;;;4.82;2.35;;;9.10;61.30;;;;;;5024973;28;20393;-77
2022/02/04 16:14:33;;;;;;;3.67;2.40;;;9.00;62.10;;;;;;5012783;28;20392;-78
2022/02/04 16:16:34;;;;;;;2.47;1.88;;;9.00;64.20;;;;;;5016119;28;20412;-79
2022/02/04 16:19:05;;;;;;;4.30;2.40;;;9.00;63.90;;;;;;5001614;28;20762;-78
2022/02/04 16:22:11;;;;;;;4.38;2.28;;;8.90;65.40;;;;;;5029105;28;20424;-78
2022/02/04 16:24:41;;;;;;;3.67;1.88;;;8.90;67.00;;;;;;5020661;28;20397;-77
2022/02/04 16:29:40;;;;;;;2.65;2.00;;;9.00;67.30;;;;;;5030199;28;20397;-77
2022/02/04 16:32:06;;;;;;;3.47;2.13;;;8.90;69.30;;;;;;5010100;28;20410;-77
2022/02/04 16:34:32;;;;;;;5.30;2.17;;;8.90;71.10;;;;;;5021884;28;20403;-77
2022/02/04 16:37:04;;;;;;;12.10;2.20;;;8.80;74.80;;;;;;5031078;28;20502;-77
2022/02/04 16:39:32;;;;;;;6.03;2.40;;;8.80;75.60;;;;;;5015619;28;20430;-77
2022/02/04 16:42:10;;;;;;;5.00;2.30;;;8.60;85.30;;;;;;5018707;28;20544;-77
2022/02/04 16:44:37;;;;;;;3.05;1.70;;;8.10;72.80;;;;;;5024603;28;20445;-76
2022/02/04 16:47:03;;;;;;;4.68;2.13;;;7.60;79.80;;;;;;5025993;28;20429;-78
2022/02/04 16:49:30;;;;;;;3.80;1.92;;;7.30;81.90;;;;;;5027674;28;20424;-78
2022/02/04 16:51:56;;;;;;;1.10;1.00;;;7.00;77.90;;;;;;5026727;28;20390;-77
2022/02/04 16:54:24;;;;;;;1.10;1.00;;;6.40;67.90;;;;;;5015196;28;20396;-78
2022/02/04 16:56:50;;;;;;;1.23;0.95;;;6.10;69.30;;;;;;5029469;28;20479;-78
2022/02/04 16:59:16;;;;;;;1.40;1.10;;;5.90;69.50;;;;;;5029784;28;20412;-78
2022/02/04 17:01:42;;;;;;;1.30;1.10;;;5.80;67.60;;;;;;5015528;28;20770;-75
2022/02/04 17:04:08;;;;;;;1.50;1.00;;;5.70;68.50;;;;;;5016689;28;20404;-78
2022/02/04 17:06:38;;;;;;;1.00;0.90;;;5.60;66.10;;;;;;5016206;28;20471;-74
2022/02/04 17:11:47;;;;;;;1.70;1.60;;;5.70;70.80;;;;;;5011345;28;20416;-78
2022/02/04 17:14:13;;;;;;;1.88;1.67;;;5.70;71.30;;;;;;5018162;28;20391;-77
2022/02/04 17:16:42;;;;;;;2.60;2.30;;;5.70;67.20;;;;;;5007455;28;20466;-76
2022/02/04 17:19:22;;;;;;;2.47;1.90;;;5.60;65.00;;;;;;5034872;28;20530;-75
2022/02/04 17:21:49;;;;;;;1.50;1.40;;;5.60;65.70;;;;;;5027652;28;20211;-77
2022/02/04 17:24:16;;;;;;;1.40;1.30;;;5.60;69.60;;;;;;5023182;28;20211;-76
2022/02/04 17:26:42;;;;;;;2.58;2.38;;;5.50;70.30;;;;;;5019160;28;20207;-76
2022/02/04 17:29:09;;;;;;;1.95;1.55;;;5.60;74.00;;;;;;5024354;28;20176;-77
2022/02/04 17:31:35;;;;;;;2.15;1.80;;;5.60;71.30;;;;;;5010780;28;20224;-76
2022/02/04 17:34:01;;;;;;;2.45;2.25;;;5.60;71.50;;;;;;5025957;28;20634;-75
2022/02/04 17:36:34;;;;;;;2.90;2.70;;;5.60;69.10;;;;;;5034043;28;20536;-76
2022/02/04 17:39:01;;;;;;;2.97;1.63;;;5.50;70.80;;;;;;5004273;28;20176;-77
2022/02/04 17:41:28;;;;;;;2.42;1.95;;;5.60;71.00;;;;;;5013425;28;20212;-75
2022/02/04 17:43:55;;;;;;;2.78;1.85;;;5.50;72.00;;;;;;5017835;28;20280;-76
2022/02/04 17:46:25;;;;;;;4.45;3.42;;;5.50;70.00;;;;;;5009449;28;20661;-76
2022/02/04 17:49:05;;;;;;;2.00;1.77;;;5.40;71.50;;;;;;5023557;28;20184;-78
2022/02/04 17:54:07;;;;;;;3.53;2.40;;;5.50;73.60;;;;;;5017120;28;20218;-76
2022/02/04 17:56:49;;;;;;;1.70;1.50;;;5.40;69.80;;;;;;5013846;28;20665;-77
2022/02/04 17:59:49;;;;;;;4.63;2.60;;;5.40;74.00;;;;;;5008843;28;20203;-76
2022/02/04 18:07:40;;;;;;;3.47;3.17;;;5.50;77.80;;;;;;5028584;28;20322;-77
2022/02/04 18:10:08;;;;;;;5.53;1.92;;;5.40;79.00;;;;;;5019806;28;20262;-76
2022/02/04 18:12:36;;;;;;;3.50;2.92;;;5.50;79.30;;;;;;5000956;28;20204;-76
2022/02/04 18:15:03;;;;;;;6.35;3.20;;;5.40;90.00;;;;;;5019102;28;20165;-75
2022/02/04 18:17:29;;;;;;;2.65;1.83;;;4.80;99.90;;;;;;5025852;28;20227;-77
2022/02/04 18:19:55;;;;;;;3.05;1.60;;;4.40;99.90;;;;;;5021384;28;20180;-77
2022/02/04 18:22:21;;;;;;;5.47;2.30;;;4.20;99.90;;;;;;5014898;28;20195;-77
2022/02/04 18:24:48;;;;;;;4.20;2.10;;;4.20;99.90;;;;;;5029380;28;20238;-77
2022/02/04 18:27:13;;;;;;;10.35;2.88;;;4.20;99.90;;;;;;5029674;28;20571;-76
2022/02/04 18:29:43;;;;;;;1.07;0.83;;;4.30;99.90;;;;;;5031945;28;20183;-77
2022/02/04 18:32:11;;;;;;;4.22;1.73;;;4.30;99.90;;;;;;5029288;28;20446;-77
2022/02/04 18:34:36;;;;;;;1.10;1.00;;;4.20;99.90;;;;;;5006343;28;20641;-76
2022/02/04 18:37:04;;;;;;;4.03;1.97;;;4.10;99.90;;;;;;5025099;28;20248;-77
2022/02/04 18:44:50;;;;;;;3.33;2.00;;;4.10;99.90;;;;;;5024626;28;20180;-78
2022/02/04 18:47:31;;;;;;;4.90;2.60;;;4.10;99.90;;;;;;5023688;28;20204;-77
2022/02/04 18:50:03;;;;;;;13.88;3.00;;;4.00;99.90;;;;;;5021512;28;20288;-76
2022/02/04 18:53:28;;;;;;;10.20;4.00;;;4.10;99.90;;;;;;5016197;28;20889;-76
2022/02/04 18:55:41;;;;;;;9.32;3.95;;;4.10;99.90;;;;;;5010094;28;20401;-76
2022/02/04 18:58:03;;;;;;;7.53;4.47;;;4.10;99.90;;;;;;5021850;28;20418;-76
2022/02/04 19:00:29;;;;;;;12.02;4.53;;;4.20;99.90;;;;;;5021721;28;20413;-76
2022/02/04 19:02:58;;;;;;;10.75;4.30;;;4.20;99.90;;;;;;5021735;28;21831;-76
2022/02/04 19:05:28;;;;;;;4.90;4.40;;;4.20;99.40;;;;;;5027593;28;20420;-75
2022/02/04 19:08:16;;;;;;;6.43;4.18;;;4.20;98.60;;;;;;5028547;28;20494;-77
2022/02/04 19:10:42;;;;;;;10.40;4.87;;;4.20;99.80;;;;;;5019806;28;20406;-76
2022/02/04 19:13:14;;;;;;;7.65;4.13;;;4.20;96.90;;;;;;5013905;28;20462;-75
2022/02/04 19:18:22;;;;;;;9.90;5.00;;;4.20;93.90;;;;;;5017606;28;20483;-77
2022/02/04 19:21:01;;;;;;;9.15;4.80;;;4.20;93.90;;;;;;5012594;28;20405;-76
2022/02/04 19:23:28;;;;;;;6.97;4.40;;;4.20;92.60;;;;;;5011646;28;20480;-77
2022/02/04 19:25:57;;;;;;;8.23;5.43;;;4.20;91.30;;;;;;4998396;28;20396;-77
2022/02/04 19:28:25;;;;;;;9.25;5.90;;;4.20;93.00;;;;;;5019179;28;20392;-77
2022/02/04 19:30:52;;;;;;;15.63;6.95;;;4.20;93.80;;;;;;5020030;28;20400;-77
2022/02/04 19:33:21;;;;;;;13.48;6.40;;;4.10;93.90;;;;;;5019342;28;20821;-77
2022/02/04 19:35:47;;;;;;;11.60;7.03;;;4.10;94.30;;;;;;5016926;28;20783;-77